Time;durP1;ratioP1;P1;durP2;ratioP2;P2;SDS_P1;SDS_P2;PMS_P1;PMS_P2;Temp;Humidity;BMP_temperature;BMP_pressure;BME280_temperature;BME280_humidity;BME280_pressure;Samples;Min_cycle;Max_cycle;Signal;HPM_P1;HPM_P2
2022/01/03 00:00:49;;;;;;;1.83;1.03;;;10.70;99.90;10.60;99892.00;;;;5017534;27;88277;-68
2022/01/03 00:03:16;;;;;;;1.70;1.13;;;10.70;99.90;10.50;99890.00;;;;5036825;27;87111;-71
2022/01/03 00:05:42;;;;;;;1.20;1.10;;;10.60;99.90;10.40;99890.00;;;;5007757;27;88394;-68
2022/01/03 00:08:09;;;;;;;5.03;1.10;;;10.50;99.90;10.30;99885.00;;;;5030597;27;117581;-69
2022/01/03 00:10:36;;;;;;;1.17;1.00;;;10.40;99.90;10.20;99882.00;;;;5035832;27;88896;-67
2022/01/03 00:13:04;;;;;;;4.83;1.40;;;10.30;99.90;10.10;99882.00;;;;5036344;27;87901;-70
2022/01/03 00:15:31;;;;;;;5.97;1.10;;;10.20;99.90;9.90;99876.00;;;;5008241;27;88490;-71
2022/01/03 00:17:57;;;;;;;4.33;1.47;;;10.10;99.90;9.80;99873.00;;;;5029109;27;88816;-72
2022/01/03 00:20:26;;;;;;;1.57;1.20;;;9.90;99.90;9.70;99875.00;;;;5035241;27;87649;-71
2022/01/03 00:23:06;;;;;;;1.37;1.07;;;9.80;99.90;9.60;99860.00;;;;5036198;27;87689;-69
2022/01/03 00:25:38;;;;;;;2.23;1.50;;;9.70;99.90;9.50;99846.00;;;;4971458;28;90104;-69
2022/01/03 00:28:24;;;;;;;1.63;1.13;;;9.60;99.90;9.40;99844.00;;;;4994925;27;87696;-69
2022/01/03 00:30:55;;;;;;;1.87;1.43;;;9.50;99.90;9.40;99841.00;;;;5021074;27;87678;-70
2022/01/03 00:33:22;;;;;;;2.33;1.60;;;9.50;99.90;9.30;99834.00;;;;5035984;27;87922;-70
2022/01/03 00:35:54;;;;;;;1.23;1.13;;;9.40;99.90;9.30;99841.00;;;;5021022;27;88789;-69
2022/01/03 00:38:22;;;;;;;2.50;1.43;;;9.40;99.90;9.30;99840.00;;;;5034154;27;107100;-69
2022/01/03 00:40:49;;;;;;;2.37;1.73;;;9.40;99.90;9.20;99829.00;;;;5035619;27;87880;-68
2022/01/03 00:43:16;;;;;;;2.40;1.57;;;9.30;99.90;9.20;99826.00;;;;5035592;27;87749;-70
2022/01/03 00:45:42;;;;;;;3.80;1.50;;;9.30;99.90;9.20;99813.00;;;;5022648;27;87931;-70
2022/01/03 00:48:10;;;;;;;3.00;1.67;;;9.30;99.90;9.20;99801.00;;;;5012279;27;96844;-70
2022/01/03 00:50:36;;;;;;;2.53;1.70;;;9.30;99.90;9.20;99793.00;;;;5034788;27;88001;-71
2022/01/03 00:53:03;;;;;;;2.50;1.33;;;9.30;99.90;9.20;99790.00;;;;5035575;27;86980;-70
2022/01/03 00:55:29;;;;;;;3.03;1.60;;;9.20;99.90;9.20;99790.00;;;;5029794;27;102191;-69
2022/01/03 00:58:03;;;;;;;2.17;1.90;;;9.20;99.90;9.20;99776.00;;;;5030986;27;100330;-69
2022/01/03 01:00:32;;;;;;;2.10;1.57;;;9.20;99.90;9.20;99774.00;;;;5034503;27;88740;-70
2022/01/03 01:03:21;;;;;;;3.53;2.07;;;9.20;99.90;9.20;99779.00;;;;5016960;27;87789;-68
2022/01/03 01:05:51;;;;;;;2.50;1.27;;;9.20;99.90;9.20;99779.00;;;;5027552;27;88820;-71
2022/01/03 01:08:26;;;;;;;2.70;1.90;;;9.30;99.90;9.20;99775.00;;;;5015588;27;88027;-71
2022/01/03 01:10:55;;;;;;;1.50;1.20;;;9.20;99.90;9.20;99782.00;;;;5035173;27;87774;-71
2022/01/03 01:13:22;;;;;;;7.43;1.80;;;9.30;99.90;9.20;99801.00;;;;5034531;27;87742;-71
2022/01/03 01:15:48;;;;;;;3.23;2.13;;;9.20;99.90;9.20;99773.00;;;;5028096;27;87777;-71
2022/01/03 01:18:13;;;;;;;3.13;1.73;;;9.20;99.90;9.20;99763.00;;;;5033661;27;96426;-71
2022/01/03 01:20:41;;;;;;;2.03;1.53;;;9.30;99.90;9.30;99763.00;;;;5035772;27;111181;-68
2022/01/03 01:23:10;;;;;;;8.33;1.80;;;9.30;99.90;9.30;99769.00;;;;5038809;27;87726;-70
2022/01/03 01:28:06;;;;;;;1.97;1.30;;;9.40;99.90;9.30;99745.00;;;;5031675;27;88650;-69
2022/01/03 01:30:33;;;;;;;2.67;1.27;;;9.30;99.90;9.30;99734.00;;;;5038357;27;87924;-70
2022/01/03 01:33:15;;;;;;;3.67;1.33;;;9.30;99.90;9.30;99739.00;;;;5038316;27;87936;-72
2022/01/03 01:36:03;;;;;;;4.73;1.70;;;9.30;99.90;9.30;99735.00;;;;5026076;27;88128;-72
2022/01/03 01:38:36;;;;;;;1.63;1.43;;;9.40;99.90;9.30;99736.00;;;;5019248;27;88025;-71
2022/01/03 01:41:06;;;;;;;2.33;1.30;;;9.40;99.90;9.40;99738.00;;;;5038015;27;93377;-73
2022/01/03 01:43:43;;;;;;;6.97;1.30;;;9.40;99.90;9.40;99716.00;;;;5019494;27;87316;-70
2022/01/03 01:46:14;;;;;;;1.60;0.80;;;9.50;99.90;9.40;99719.00;;;;5029695;27;89402;-71
2022/01/03 01:48:44;;;;;;;1.00;0.90;;;9.50;99.90;9.40;99723.00;;;;5018963;27;88154;-71
2022/01/03 01:51:12;;;;;;;6.73;0.80;;;9.50;99.90;9.40;99738.00;;;;5037016;27;88704;-72
2022/01/03 01:53:48;;;;;;;1.07;0.80;;;9.50;99.90;9.40;99740.00;;;;5019014;27;87965;-71
2022/01/03 01:56:22;;;;;;;2.63;0.97;;;9.50;99.90;9.40;99750.00;;;;5020547;27;92678;-72
2022/01/03 01:59:22;;;;;;;1.03;0.67;;;9.50;99.90;9.40;99751.00;;;;5019047;27;88123;-71
2022/01/03 02:02:11;;;;;;;0.77;0.47;;;9.50;99.90;9.40;99743.00;;;;5002418;27;88153;-71
2022/01/03 02:05:02;;;;;;;0.30;0.30;;;9.40;99.90;9.30;99762.00;;;;5038374;27;87646;-72
2022/01/03 02:08:15;;;;;;;0.40;0.40;;;9.40;99.90;9.30;99768.00;;;;5037825;27;88120;-70
2022/01/03 02:10:45;;;;;;;0.73;0.30;;;9.40;99.90;9.30;99763.00;;;;4974538;27;88668;-70
2022/01/03 02:13:20;;;;;;;0.50;0.40;;;9.40;99.90;9.30;99786.00;;;;5018493;27;87706;-70
2022/01/03 02:15:50;;;;;;;0.47;0.20;;;9.40;99.90;9.30;99772.00;;;;5022647;27;87889;-71
2022/01/03 02:18:15;;;;;;;0.20;0.20;;;9.40;99.90;9.20;99766.00;;;;5034093;27;89907;-71
2022/01/03 02:20:41;;;;;;;0.27;0.27;;;9.30;99.90;9.20;99757.00;;;;5035701;27;116827;-70
2022/01/03 02:23:07;;;;;;;1.90;0.30;;;9.20;99.90;9.20;99753.00;;;;5036800;27;87688;-69
2022/01/03 02:25:33;;;;;;;0.30;0.30;;;9.30;99.90;9.20;99769.00;;;;5009482;27;87693;-69
2022/01/03 02:27:59;;;;;;;1.23;0.53;;;9.20;99.90;9.20;99778.00;;;;5029591;27;117208;-70
2022/01/03 02:30:30;;;;;;;0.30;0.30;;;9.20;99.90;9.20;99773.00;;;;5035679;27;88381;-69
2022/01/03 02:32:55;;;;;;;1.73;0.30;;;9.20;99.90;9.20;99769.00;;;;5036410;27;97123;-69
2022/01/03 02:35:22;;;;;;;0.13;0.13;;;9.30;99.90;9.20;99773.00;;;;5035925;27;109249;-69
2022/01/03 02:37:49;;;;;;;0.67;0.23;;;9.20;99.90;9.20;99786.00;;;;5035726;27;117593;-69
2022/01/03 02:40:15;;;;;;;0.27;0.20;;;9.20;99.90;9.20;99791.00;;;;5036115;27;88492;-69
2022/01/03 02:42:42;;;;;;;0.40;0.17;;;9.20;99.90;9.20;99775.00;;;;5036116;27;88716;-69
2022/01/03 02:45:20;;;;;;;1.70;0.20;;;9.20;99.90;9.20;99775.00;;;;5035191;27;87927;-70
2022/01/03 02:48:03;;;;;;;0.10;0.10;;;9.30;99.90;9.20;99772.00;;;;5031092;27;87679;-69
2022/01/03 02:50:32;;;;;;;0.13;0.13;;;9.20;99.90;9.20;99772.00;;;;5016727;27;89128;-68
2022/01/03 02:52:58;;;;;;;1.87;0.17;;;9.20;99.90;9.20;99771.00;;;;5036026;27;99728;-68
2022/01/03 02:55:26;;;;;;;0.33;0.20;;;9.20;99.90;9.20;99769.00;;;;5032405;27;88000;-68
2022/01/03 02:57:55;;;;;;;0.10;0.10;;;9.30;99.90;9.20;99778.00;;;;5032241;27;90113;-69
2022/01/03 03:00:25;;;;;;;0.03;0.03;;;9.20;99.90;9.10;99769.00;;;;5035462;27;88407;-68
2022/01/03 03:02:51;;;;;;;0.43;0.20;;;9.20;99.90;9.00;99774.00;;;;5035622;27;95836;-68
2022/01/03 03:05:17;;;;;;;0.17;0.17;;;9.10;99.90;9.00;99772.00;;;;5032479;27;108847;-67
2022/01/03 03:07:45;;;;;;;0.00;0.00;;;9.10;99.90;9.00;99779.00;;;;5030192;27;89644;-69
2022/01/03 03:10:14;;;;;;;0.10;0.10;;;9.10;99.90;9.00;99768.00;;;;5016575;27;90103;-69
2022/01/03 03:15:21;;;;;;;0.10;0.10;;;9.00;99.90;8.90;99761.00;;;;5058209;27;81113;-69
2022/01/03 03:17:48;;;;;;;2.10;0.40;;;9.00;99.90;8.90;99770.00;;;;5016807;27;81544;-68
2022/01/03 03:20:24;;;;;;;0.10;0.10;;;9.00;99.90;8.90;99768.00;;;;5027245;27;81601;-69
2022/01/03 03:22:51;;;;;;;0.20;0.20;;;8.90;99.90;8.80;99762.00;;;;5035490;27;80873;-69
2022/01/03 03:25:22;;;;;;;0.30;0.30;;;8.90;99.90;8.80;99772.00;;;;5035654;27;81177;-68
2022/01/03 03:27:52;;;;;;;0.20;0.20;;;8.90;99.90;8.80;99772.00;;;;5017193;27;81180;-68
2022/01/03 03:30:24;;;;;;;1.07;0.30;;;9.30;99.90;8.70;99763.00;;;;5036024;27;80863;-69
2022/01/03 03:32:53;;;;;;;0.47;0.20;;;8.40;99.90;8.70;99760.00;;;;5035716;27;80941;-68
2022/01/03 03:35:20;;;;;;;0.00;0.00;;;9.30;99.90;8.70;99769.00;;;;5017144;27;81185;-68
2022/01/03 03:37:46;;;;;;;0.53;0.33;;;8.70;99.90;8.60;99753.00;;;;5035903;27;81292;-68
2022/01/03 03:40:12;;;;;;;0.27;0.20;;;8.70;99.90;8.60;99749.00;;;;5035829;27;81308;-68
2022/01/03 03:42:40;;;;;;;0.10;0.10;;;8.70;99.90;8.60;99760.00;;;;5035236;27;97615;-68
2022/01/03 03:45:06;;;;;;;0.10;0.10;;;8.70;99.90;8.50;99757.00;;;;5034538;27;96663;-69
2022/01/03 03:47:33;;;;;;;0.13;0.13;;;8.40;99.90;8.50;99740.00;;;;5035495;27;81844;-68
2022/01/03 03:49:58;;;;;;;0.23;0.23;;;8.60;99.90;8.50;99746.00;;;;5034474;27;96585;-68
2022/01/03 03:52:24;;;;;;;0.33;0.33;;;8.60;99.90;8.50;99745.00;;;;5035736;27;80888;-67
2022/01/03 03:54:50;;;;;;;0.50;0.10;;;8.50;99.90;8.50;99756.00;;;;5034171;27;111261;-68
2022/01/03 03:57:16;;;;;;;0.10;0.10;;;8.60;99.90;8.50;99753.00;;;;5034324;27;110942;-68
2022/01/03 03:59:41;;;;;;;0.50;0.47;;;8.50;99.90;8.50;99761.00;;;;5035018;27;93759;-69
2022/01/03 04:02:07;;;;;;;0.20;0.17;;;8.50;99.90;8.40;99744.00;;;;5034016;27;107285;-69
2022/01/03 04:04:34;;;;;;;0.30;0.20;;;8.50;99.90;8.40;99741.00;;;;5034218;27;111034;-68
2022/01/03 04:07:00;;;;;;;0.23;0.13;;;8.50;99.90;8.40;99757.00;;;;5035659;27;81816;-68
2022/01/03 04:09:26;;;;;;;0.77;0.27;;;8.50;99.90;8.40;99759.00;;;;5015384;27;81018;-69
2022/01/03 04:11:52;;;;;;;0.17;0.17;;;8.50;99.90;8.40;99762.00;;;;5034409;27;91506;-68
2022/01/03 04:14:17;;;;;;;0.10;0.10;;;8.50;99.90;8.40;99758.00;;;;5033242;27;110273;-68
2022/01/03 04:16:43;;;;;;;1.87;0.40;;;8.50;99.90;8.40;99771.00;;;;5035139;27;81130;-69
2022/01/03 04:19:09;;;;;;;0.10;0.10;;;8.50;99.90;8.40;99758.00;;;;5034072;27;81113;-69
2022/01/03 04:21:37;;;;;;;1.57;0.30;;;8.50;99.90;8.40;99763.00;;;;5034855;27;80963;-69
2022/01/03 04:24:04;;;;;;;0.10;0.10;;;8.50;99.90;8.40;99774.00;;;;5034275;27;81665;-68
2022/01/03 04:26:31;;;;;;;0.10;0.10;;;8.50;99.90;8.40;99776.00;;;;5022291;27;82184;-68
2022/01/03 04:28:57;;;;;;;4.70;0.50;;;8.50;99.90;8.50;99756.00;;;;5020526;27;81276;-69
2022/01/03 04:31:23;;;;;;;1.97;0.33;;;8.50;99.90;8.50;99783.00;;;;5019514;27;109322;-68
2022/01/03 04:33:48;;;;;;;0.20;0.20;;;8.60;99.90;8.50;99784.00;;;;5019442;27;110607;-69
2022/01/03 04:36:14;;;;;;;0.20;0.20;;;8.50;99.90;8.50;99775.00;;;;5020886;27;82297;-69
2022/01/03 04:38:40;;;;;;;1.23;0.30;;;8.60;99.90;8.60;99783.00;;;;5012703;27;110050;-69
2022/01/03 04:41:06;;;;;;;0.20;0.20;;;8.60;99.90;8.60;99783.00;;;;5018742;27;110373;-69
2022/01/03 04:43:35;;;;;;;0.70;0.50;;;8.70;99.90;8.70;99764.00;;;;5019817;27;94891;-69
2022/01/03 04:46:02;;;;;;;0.53;0.27;;;8.70;99.90;8.70;99771.00;;;;5021020;27;81040;-69
2022/01/03 04:48:28;;;;;;;0.27;0.20;;;8.70;99.90;8.70;99788.00;;;;5020976;27;81287;-69
2022/01/03 04:50:54;;;;;;;0.43;0.43;;;8.80;99.90;8.80;99796.00;;;;5020371;27;94684;-69
2022/01/03 04:53:25;;;;;;;0.13;0.13;;;8.80;99.90;8.80;99784.00;;;;5019984;27;81708;-68
2022/01/03 04:55:51;;;;;;;0.83;0.30;;;8.80;99.90;8.90;99792.00;;;;5021336;27;81082;-70
2022/01/03 04:58:17;;;;;;;0.70;0.37;;;8.90;99.90;9.00;99805.00;;;;5000744;27;96821;-69
2022/01/03 05:00:43;;;;;;;0.53;0.43;;;9.00;99.90;9.00;99786.00;;;;5020272;27;108524;-68
2022/01/03 05:03:10;;;;;;;0.40;0.30;;;9.00;99.90;9.10;99797.00;;;;5018582;27;111980;-69
2022/01/03 05:05:36;;;;;;;0.30;0.30;;;9.10;99.90;9.10;99792.00;;;;5021211;27;81115;-68
2022/01/03 05:08:02;;;;;;;0.20;0.20;;;9.20;99.90;9.10;99802.00;;;;5019030;27;110676;-69
2022/01/03 05:10:28;;;;;;;0.33;0.33;;;9.20;99.90;9.20;99795.00;;;;5020778;27;80985;-68
2022/01/03 05:12:53;;;;;;;0.60;0.30;;;9.20;99.90;9.20;99802.00;;;;5019906;27;98370;-69
2022/01/03 05:15:19;;;;;;;0.33;0.30;;;9.20;99.90;9.30;99806.00;;;;5016993;27;108782;-69
2022/01/03 05:17:45;;;;;;;0.50;0.47;;;9.30;99.90;9.30;99790.00;;;;4999186;27;81960;-69
2022/01/03 05:20:12;;;;;;;0.50;0.50;;;9.30;99.90;9.30;99805.00;;;;5019226;27;108979;-68
2022/01/03 05:22:38;;;;;;;4.13;0.60;;;9.40;99.90;9.30;99806.00;;;;5019805;27;81374;-69
2022/01/03 05:25:05;;;;;;;0.67;0.40;;;9.40;99.90;9.20;99803.00;;;;5019603;27;91304;-68
2022/01/03 05:27:31;;;;;;;2.53;0.70;;;9.30;99.90;9.10;99806.00;;;;5018855;27;97169;-68
2022/01/03 05:29:57;;;;;;;0.40;0.40;;;9.20;99.90;9.00;99810.00;;;;5019854;27;81006;-68
2022/01/03 05:32:22;;;;;;;0.57;0.30;;;9.10;99.90;9.00;99822.00;;;;5018995;27;110834;-69
2022/01/03 05:34:48;;;;;;;0.53;0.43;;;9.10;99.90;9.00;99826.00;;;;5001745;27;83689;-69
2022/01/03 05:37:14;;;;;;;3.53;0.67;;;9.10;99.90;9.00;99818.00;;;;5003276;27;94513;-69
2022/01/03 05:39:39;;;;;;;0.50;0.30;;;9.00;99.90;9.00;99806.00;;;;4998863;28;109448;-69
2022/01/03 05:42:06;;;;;;;0.40;0.37;;;9.00;99.90;9.00;99821.00;;;;4978077;28;110797;-68
2022/01/03 05:44:31;;;;;;;5.30;0.40;;;9.10;99.90;9.00;99820.00;;;;4997143;27;82154;-69
2022/01/03 05:46:57;;;;;;;1.03;0.50;;;9.10;99.90;9.00;99826.00;;;;4995415;27;110154;-69
2022/01/03 05:49:23;;;;;;;0.40;0.30;;;9.10;99.90;9.10;99831.00;;;;4995362;27;109750;-69
2022/01/03 05:51:48;;;;;;;0.30;0.30;;;9.10;99.90;9.10;99837.00;;;;4996105;27;81749;-69
2022/01/03 05:54:14;;;;;;;0.50;0.50;;;9.20;99.90;9.20;99826.00;;;;4995705;27;98975;-70
2022/01/03 05:56:40;;;;;;;1.50;0.30;;;9.20;99.90;9.20;99828.00;;;;4995872;27;109300;-69
2022/01/03 05:59:07;;;;;;;0.63;0.33;;;9.30;99.90;9.30;99827.00;;;;4995066;27;108772;-72
2022/01/03 06:01:34;;;;;;;2.13;0.60;;;9.40;99.90;9.30;99836.00;;;;4996399;27;81706;-69
2022/01/03 06:04:11;;;;;;;0.43;0.40;;;9.40;99.90;9.30;99834.00;;;;4997067;27;81051;-70
2022/01/03 06:06:55;;;;;;;2.87;0.50;;;9.40;99.90;9.30;99838.00;;;;4994349;27;82020;-68
2022/01/03 06:09:22;;;;;;;0.50;0.50;;;9.90;99.90;9.40;99827.00;;;;4980543;27;81318;-69
2022/01/03 06:11:49;;;;;;;0.90;0.70;;;9.40;99.90;9.40;99843.00;;;;4981852;27;81682;-67
2022/01/03 06:14:16;;;;;;;1.60;0.70;;;9.40;99.90;9.40;99823.00;;;;4995118;27;81009;-68
2022/01/03 06:16:46;;;;;;;0.87;0.50;;;9.50;99.90;9.50;99836.00;;;;4986545;27;80903;-68
2022/01/03 06:19:13;;;;;;;1.50;0.53;;;9.50;99.90;9.50;99850.00;;;;4976493;27;86792;-68
2022/01/03 06:21:41;;;;;;;0.27;0.23;;;9.50;99.90;9.40;99840.00;;;;4996321;27;83712;-67
2022/01/03 06:24:18;;;;;;;0.60;0.30;;;9.50;99.90;9.40;99838.00;;;;4995952;27;81921;-68
2022/01/03 06:26:44;;;;;;;0.53;0.50;;;9.50;99.90;9.40;99836.00;;;;4997510;28;81163;-68
2022/01/03 06:29:13;;;;;;;1.13;0.57;;;9.40;99.90;9.40;99840.00;;;;4994334;27;81237;-68
2022/01/03 06:31:40;;;;;;;0.80;0.60;;;9.40;99.90;9.40;99860.00;;;;5017279;27;95520;-68
2022/01/03 06:34:06;;;;;;;0.37;0.33;;;9.40;99.90;9.40;99849.00;;;;4998577;28;96583;-69
2022/01/03 06:36:32;;;;;;;3.27;1.10;;;9.40;99.90;9.40;99864.00;;;;4980477;27;82408;-69
2022/01/03 06:38:58;;;;;;;0.50;0.50;;;9.40;99.90;9.40;99874.00;;;;4980180;28;81033;-68
2022/01/03 06:41:25;;;;;;;3.13;0.47;;;9.40;99.90;9.40;99866.00;;;;4998972;28;96862;-68
2022/01/03 06:43:51;;;;;;;0.83;0.70;;;9.50;99.90;9.40;99877.00;;;;4998271;28;99890;-68
2022/01/03 06:46:18;;;;;;;0.70;0.53;;;9.40;99.90;9.40;99894.00;;;;4999285;28;80880;-68
2022/01/03 06:48:45;;;;;;;0.70;0.50;;;9.40;99.90;9.40;99873.00;;;;4997731;28;80955;-68
2022/01/03 06:51:15;;;;;;;0.57;0.40;;;9.50;99.90;9.40;99879.00;;;;4998605;28;81901;-68
2022/01/03 06:53:41;;;;;;;3.83;0.80;;;9.40;99.90;9.50;99889.00;;;;4997640;28;97485;-68
2022/01/03 06:56:07;;;;;;;1.13;0.67;;;9.50;99.90;9.50;99885.00;;;;4998531;28;99134;-68
2022/01/03 06:58:32;;;;;;;3.43;0.73;;;9.50;99.90;9.50;99882.00;;;;4997495;28;108830;-69
2022/01/03 07:00:58;;;;;;;0.60;0.60;;;9.50;99.90;9.50;99902.00;;;;4979262;28;108808;-69
2022/01/03 07:03:24;;;;;;;1.20;0.90;;;9.50;99.90;9.50;99912.00;;;;4997931;28;81244;-69
2022/01/03 07:05:50;;;;;;;1.03;0.63;;;9.50;99.90;9.40;99889.00;;;;4999054;28;81060;-69
2022/01/03 07:08:16;;;;;;;1.13;0.70;;;9.50;99.90;9.40;99892.00;;;;4997427;28;109830;-69
2022/01/03 07:10:41;;;;;;;0.40;0.40;;;9.50;99.90;9.40;99904.00;;;;4997504;28;111572;-69
2022/01/03 07:13:07;;;;;;;1.47;0.57;;;9.40;99.90;9.30;99915.00;;;;4996484;28;109909;-69
2022/01/03 07:21:02;;;;;;;0.43;0.43;;;9.30;99.90;9.30;99914.00;;;;4994715;28;82964;-70
2022/01/03 07:23:28;;;;;;;1.17;0.70;;;9.30;99.90;9.30;99913.00;;;;4977991;28;109909;-69
2022/01/03 07:25:54;;;;;;;1.33;0.90;;;9.30;99.90;9.30;99925.00;;;;4998513;27;86607;-69
2022/01/03 07:28:19;;;;;;;0.70;0.50;;;9.30;99.90;9.30;99926.00;;;;5023702;27;82443;-69
2022/01/03 07:30:45;;;;;;;3.37;0.77;;;9.30;99.90;9.30;99926.00;;;;5016492;27;112609;-68
2022/01/03 07:33:11;;;;;;;1.77;0.57;;;9.40;99.90;9.30;99918.00;;;;5014779;27;102537;-69
2022/01/03 07:35:37;;;;;;;2.40;0.90;;;9.40;99.90;9.40;99946.00;;;;5016505;27;104381;-69
2022/01/03 07:38:04;;;;;;;1.83;0.90;;;9.40;99.90;9.40;99945.00;;;;5016167;27;109027;-69
2022/01/03 07:40:30;;;;;;;3.63;1.20;;;9.50;99.90;9.40;99932.00;;;;5015135;27;85559;-70
2022/01/03 07:42:58;;;;;;;3.73;0.90;;;9.40;99.90;9.50;99938.00;;;;5016380;27;82718;-69
2022/01/03 07:45:24;;;;;;;1.77;0.90;;;9.50;99.90;9.50;99947.00;;;;4998284;27;82748;-69
2022/01/03 07:47:50;;;;;;;6.23;1.33;;;9.50;99.90;9.60;99945.00;;;;5016922;27;82141;-70
2022/01/03 07:50:17;;;;;;;0.97;0.87;;;9.60;99.90;9.70;99955.00;;;;5016734;27;94840;-69
2022/01/03 07:52:42;;;;;;;1.07;0.87;;;9.70;99.90;9.80;99948.00;;;;5016375;27;109859;-68
2022/01/03 07:55:11;;;;;;;2.57;1.10;;;9.80;99.90;9.90;99959.00;;;;5005801;27;86422;-69
2022/01/03 07:57:38;;;;;;;4.80;1.23;;;9.80;99.90;10.00;99955.00;;;;4978129;28;82571;-69
2022/01/03 08:00:07;;;;;;;0.97;0.60;;;10.00;99.90;10.20;99968.00;;;;4997844;27;83586;-69
2022/01/03 08:02:32;;;;;;;1.63;0.90;;;10.10;99.90;10.30;99983.00;;;;4999615;28;92068;-69
2022/01/03 08:04:58;;;;;;;3.07;0.73;;;10.30;99.90;10.30;99969.00;;;;4999416;28;110223;-70
2022/01/03 08:07:24;;;;;;;2.23;0.67;;;10.30;99.90;10.10;99970.00;;;;4999795;27;97866;-71
2022/01/03 08:09:50;;;;;;;5.43;1.10;;;10.20;99.90;9.80;99977.00;;;;4999723;28;82950;-70
2022/01/03 08:12:16;;;;;;;7.83;1.47;;;10.00;99.90;9.50;99958.00;;;;4999169;28;110913;-72
2022/01/03 08:14:42;;;;;;;2.00;0.70;;;9.70;99.90;9.20;99960.00;;;;4999316;28;82598;-72
2022/01/03 08:17:08;;;;;;;1.13;0.50;;;9.50;99.90;9.00;99967.00;;;;4999831;28;89904;-70
2022/01/03 08:19:34;;;;;;;1.20;0.60;;;9.30;99.90;8.90;99977.00;;;;4997951;28;103113;-73
2022/01/03 08:22:00;;;;;;;1.03;0.60;;;9.00;99.90;8.80;99949.00;;;;4999969;28;85008;-71
2022/01/03 08:24:26;;;;;;;1.67;0.77;;;8.90;99.90;8.70;99972.00;;;;4981555;28;82824;-72
2022/01/03 08:26:52;;;;;;;2.60;0.60;;;8.90;99.90;8.70;99979.00;;;;4981191;28;84438;-73
2022/01/03 08:29:18;;;;;;;1.03;0.73;;;8.90;99.90;8.80;99994.00;;;;4999109;28;83312;-73
2022/01/03 08:31:44;;;;;;;0.93;0.83;;;8.90;99.90;8.90;99945.00;;;;4998984;28;111223;-73
2022/01/03 08:34:09;;;;;;;1.33;1.00;;;9.40;99.90;9.10;99980.00;;;;4999402;28;82684;-71
2022/01/03 08:36:35;;;;;;;2.27;0.87;;;9.10;99.90;9.30;99994.00;;;;4999507;28;108933;-71
2022/01/03 08:39:01;;;;;;;1.73;0.90;;;9.60;99.90;9.50;99999.00;;;;4987047;27;84270;-72
2022/01/03 08:41:27;;;;;;;9.60;1.10;;;9.50;99.90;9.50;99995.00;;;;5000630;27;82802;-72
2022/01/03 08:43:53;;;;;;;0.83;0.83;;;9.50;99.90;9.60;99997.00;;;;4998666;27;107797;-72
2022/01/03 08:46:19;;;;;;;2.03;0.80;;;9.60;99.90;9.70;100008.00;;;;5000085;27;108696;-73
2022/01/03 08:48:45;;;;;;;2.63;1.07;;;9.60;99.90;9.70;100000.00;;;;4963854;28;84332;-72
2022/01/03 08:51:11;;;;;;;3.93;0.90;;;9.70;99.90;9.90;100001.00;;;;5000665;27;98550;-73
2022/01/03 08:53:37;;;;;;;4.17;0.93;;;9.80;99.90;10.00;100005.00;;;;5008120;27;82554;-71
2022/01/03 08:56:04;;;;;;;1.70;0.70;;;10.00;99.90;10.10;100003.00;;;;4999887;27;86913;-71
2022/01/03 08:58:29;;;;;;;0.63;0.63;;;10.10;99.90;10.20;100014.00;;;;4997026;28;87863;-72
2022/01/03 09:00:56;;;;;;;1.63;1.00;;;10.20;99.90;10.30;100010.00;;;;5018015;27;112634;-72
2022/01/03 09:03:22;;;;;;;0.57;0.47;;;10.30;99.90;10.30;100005.00;;;;5018337;27;110060;-72
2022/01/03 09:05:49;;;;;;;1.70;0.80;;;10.30;99.90;10.40;100007.00;;;;5017227;27;107698;-71
2022/01/03 09:08:17;;;;;;;1.93;1.00;;;10.30;99.90;10.40;100000.00;;;;5016888;27;83874;-71
2022/01/03 09:10:43;;;;;;;1.03;0.70;;;10.40;99.90;10.40;100014.00;;;;5017418;27;84642;-72
2022/01/03 09:13:08;;;;;;;1.70;0.77;;;10.40;99.90;10.40;100011.00;;;;5018151;27;110243;-71
2022/01/03 09:15:36;;;;;;;3.80;0.73;;;10.40;99.90;10.40;100022.00;;;;5019875;27;82640;-70
2022/01/03 09:18:02;;;;;;;3.50;0.87;;;10.40;99.90;10.40;100012.00;;;;5018961;27;83859;-69
2022/01/03 09:20:27;;;;;;;1.43;1.00;;;10.40;99.90;10.30;100008.00;;;;5016453;27;98384;-68
2022/01/03 09:22:56;;;;;;;2.90;1.07;;;10.40;99.90;10.30;100030.00;;;;5018091;27;109974;-68
2022/01/03 09:30:50;;;;;;;2.43;0.80;;;10.30;99.90;10.30;100034.00;;;;5013121;27;82768;-69
2022/01/03 09:33:16;;;;;;;3.50;0.67;;;10.30;99.90;10.30;100041.00;;;;4995806;27;102583;-68
2022/01/03 09:35:44;;;;;;;1.87;0.70;;;10.30;99.90;10.30;100042.00;;;;4982830;28;109318;-69
2022/01/03 09:38:10;;;;;;;3.80;1.33;;;10.30;99.90;10.30;100048.00;;;;5002938;27;83001;-70
2022/01/03 09:40:39;;;;;;;3.10;0.73;;;10.30;99.90;10.30;100048.00;;;;5011554;27;83811;-70
2022/01/03 09:43:08;;;;;;;4.37;1.00;;;10.30;99.90;10.30;100046.00;;;;4979865;28;84795;-69
2022/01/03 09:45:37;;;;;;;7.27;1.03;;;10.30;99.90;10.30;100029.00;;;;4997295;27;87014;-69
2022/01/03 09:48:04;;;;;;;5.37;0.77;;;10.30;99.90;10.20;100034.00;;;;5013852;27;83194;-69
2022/01/03 09:50:35;;;;;;;1.73;0.93;;;9.90;99.90;10.40;100035.00;;;;5017620;27;82930;-68
2022/01/03 09:53:03;;;;;;;3.57;1.07;;;10.30;99.90;10.70;100038.00;;;;5018569;27;83180;-68
2022/01/03 09:55:30;;;;;;;1.33;0.87;;;10.60;99.90;10.90;100037.00;;;;4998726;27;82996;-69
2022/01/03 09:57:56;;;;;;;1.30;0.87;;;10.90;99.90;11.20;100037.00;;;;4999543;27;83994;-68
2022/01/03 10:00:23;;;;;;;4.13;1.70;;;11.00;99.90;11.30;100040.00;;;;5013993;27;112668;-69
2022/01/03 10:02:53;;;;;;;2.70;0.47;;;11.20;99.90;11.30;100041.00;;;;4999822;27;82992;-69
2022/01/03 10:05:21;;;;;;;1.83;0.67;;;11.30;99.90;11.20;100040.00;;;;5018850;27;82543;-68
2022/01/03 10:07:47;;;;;;;4.43;1.30;;;11.30;99.90;11.30;100049.00;;;;5018823;27;82897;-69
2022/01/03 10:10:14;;;;;;;1.77;1.27;;;11.30;99.90;11.20;100039.00;;;;5016723;27;82903;-68
2022/01/03 10:12:40;;;;;;;2.00;0.57;;;11.30;99.90;11.20;100037.00;;;;5006182;27;98855;-68
2022/01/03 10:15:09;;;;;;;6.97;1.00;;;11.20;99.90;11.10;100028.00;;;;5005093;27;88736;-68
2022/01/03 10:17:41;;;;;;;1.57;0.67;;;11.10;99.90;11.00;100033.00;;;;5000044;27;84448;-68
2022/01/03 10:20:10;;;;;;;5.60;1.07;;;11.10;99.90;10.90;100030.00;;;;4998566;27;82741;-68
2022/01/03 10:22:38;;;;;;;2.30;0.83;;;11.00;99.90;10.90;100026.00;;;;5010003;27;83386;-68
2022/01/03 10:25:19;;;;;;;3.10;0.73;;;10.90;99.90;10.90;100019.00;;;;4998064;28;82632;-67
2022/01/03 10:27:55;;;;;;;1.83;1.00;;;11.00;99.90;10.90;100020.00;;;;4998058;28;82897;-68
2022/01/03 10:30:36;;;;;;;1.87;0.90;;;11.00;99.90;11.00;100031.00;;;;5002214;27;82757;-68
2022/01/03 10:33:11;;;;;;;2.40;0.87;;;11.00;99.90;11.00;100025.00;;;;5010824;27;82835;-67
2022/01/03 10:35:41;;;;;;;0.73;0.73;;;11.00;99.90;11.00;100015.00;;;;4995152;27;82835;-67
2022/01/03 10:38:09;;;;;;;2.53;0.60;;;11.00;99.90;11.00;100026.00;;;;5015646;27;100650;-68
2022/01/03 10:40:36;;;;;;;1.03;0.60;;;11.00;99.90;11.00;100023.00;;;;4998501;28;83846;-67
2022/01/03 10:43:19;;;;;;;3.03;1.17;;;11.00;99.90;10.90;100013.00;;;;5001919;27;82821;-68
2022/01/03 10:45:47;;;;;;;1.57;0.97;;;11.00;99.90;10.90;100025.00;;;;5017957;27;82861;-69
2022/01/03 10:48:32;;;;;;;4.13;1.33;;;10.90;99.90;10.90;100023.00;;;;5017987;27;84053;-68
2022/01/03 10:51:00;;;;;;;6.17;0.83;;;11.00;99.90;11.00;100016.00;;;;4984319;28;83198;-67
2022/01/03 10:53:41;;;;;;;7.87;1.00;;;11.00;99.90;11.10;100010.00;;;;4978075;28;83046;-68
2022/01/03 10:56:29;;;;;;;4.07;0.90;;;11.10;99.90;11.10;100015.00;;;;4979554;28;90701;-67
2022/01/03 10:59:03;;;;;;;2.63;0.80;;;11.10;99.90;11.20;100007.00;;;;4997649;27;82635;-68
2022/01/03 11:01:31;;;;;;;3.63;1.00;;;11.10;99.90;11.20;100010.00;;;;4996357;28;83709;-67
2022/01/03 11:04:01;;;;;;;0.93;0.67;;;11.20;99.90;11.20;100010.00;;;;4978363;28;82728;-68
2022/01/03 11:11:51;;;;;;;2.93;0.63;;;11.20;99.90;11.20;99992.00;;;;5014486;27;82676;-68
2022/01/03 11:14:39;;;;;;;2.20;1.10;;;11.20;99.90;11.20;99992.00;;;;5016641;27;83970;-69
2022/01/03 11:17:29;;;;;;;2.97;0.93;;;11.20;99.70;11.30;99985.00;;;;4999153;27;83056;-68
2022/01/03 11:19:59;;;;;;;1.60;0.67;;;11.20;99.50;11.40;99986.00;;;;5017430;27;82687;-68
2022/01/03 11:22:47;;;;;;;3.03;1.00;;;11.40;99.70;11.50;99988.00;;;;5017518;27;83667;-68
2022/01/03 11:25:13;;;;;;;2.93;0.53;;;11.40;99.50;11.50;99978.00;;;;5015749;27;82676;-67
2022/01/03 11:27:40;;;;;;;0.93;0.50;;;11.50;99.00;11.60;99968.00;;;;5017789;27;87736;-68
2022/01/03 11:30:12;;;;;;;4.20;1.37;;;11.60;97.80;11.60;99969.00;;;;5015331;27;84981;-68